ESOK

Karlstad Airport

Karlstad, Sweden
METAR ESOK 161720Z 17010KT CAVOK 19/15 Q1010
Observed Flight Rules
Aug-16 @ 17:20 UTC (15 minutes ago) Visual Flight Rules
Wind Visibility Clouds
170° at 10 knots 10,000+ meters
  • Clear skies
Temperatures Readings
Current 19°C / 66°F
Dewpoint 15°C / 59°F
Humidity 78%
Altimeter 29.82" Hg
Pressure 1010 hPa
Elevation 107
METAR ESOK 161720Z 17010KT CAVOK 19/15 Q1010
Observed Flight Rules
Aug-16 @ 17:20 UTC
(15 minutes ago)
VFR
Wind Visibility
170° at 10 knots 10,000+ meters
Clouds
  • Clear skies
Temperature Dewpoint
19°C / 66°F 15°C / 59°F
Humidity Altimeter Pressure
78% 29.82" Hg 1010 hPa